sensor_id;sensor_type;location;lat;lon;timestamp;P1;durP1;ratioP1;P2;durP2;ratioP2
8952;SDS011;4511;50.890;8.054;2023-05-07T00:00:34;6.03;;;2.40;;
8952;SDS011;4511;50.890;8.054;2023-05-07T00:03:02;2.90;;;2.20;;
8952;SDS011;4511;50.890;8.054;2023-05-07T00:05:29;3.33;;;2.50;;
8952;SDS011;4511;50.890;8.054;2023-05-07T00:07:56;3.10;;;2.80;;
8952;SDS011;4511;50.890;8.054;2023-05-07T00:10:22;3.87;;;2.90;;
8952;SDS011;4511;50.890;8.054;2023-05-07T00:12:50;2.87;;;2.57;;
8952;SDS011;4511;50.890;8.054;2023-05-07T00:15:17;2.50;;;2.30;;
8952;SDS011;4511;50.890;8.054;2023-05-07T00:17:44;5.60;;;2.30;;
8952;SDS011;4511;50.890;8.054;2023-05-07T00:20:12;2.37;;;2.27;;
8952;SDS011;4511;50.890;8.054;2023-05-07T00:22:39;3.97;;;2.40;;
8952;SDS011;4511;50.890;8.054;2023-05-07T00:25:06;3.93;;;2.30;;
8952;SDS011;4511;50.890;8.054;2023-05-07T00:27:33;3.33;;;2.10;;
8952;SDS011;4511;50.890;8.054;2023-05-07T00:30:00;2.73;;;2.40;;
8952;SDS011;4511;50.890;8.054;2023-05-07T00:32:26;3.47;;;2.50;;
8952;SDS011;4511;50.890;8.054;2023-05-07T00:34:53;5.40;;;2.70;;
8952;SDS011;4511;50.890;8.054;2023-05-07T00:37:21;2.83;;;2.20;;
8952;SDS011;4511;50.890;8.054;2023-05-07T00:39:48;6.60;;;2.40;;
8952;SDS011;4511;50.890;8.054;2023-05-07T00:42:15;2.67;;;2.47;;
8952;SDS011;4511;50.890;8.054;2023-05-07T00:44:42;2.67;;;2.47;;
8952;SDS011;4511;50.890;8.054;2023-05-07T00:47:08;3.67;;;2.40;;
8952;SDS011;4511;50.890;8.054;2023-05-07T00:49:37;3.53;;;2.53;;
8952;SDS011;4511;50.890;8.054;2023-05-07T00:52:06;3.57;;;2.70;;
8952;SDS011;4511;50.890;8.054;2023-05-07T00:54:34;2.60;;;2.40;;
8952;SDS011;4511;50.890;8.054;2023-05-07T00:57:02;3.33;;;2.40;;
8952;SDS011;4511;50.890;8.054;2023-05-07T00:59:29;2.80;;;2.60;;
8952;SDS011;4511;50.890;8.054;2023-05-07T01:01:57;3.97;;;2.40;;
8952;SDS011;4511;50.890;8.054;2023-05-07T01:04:24;4.30;;;2.60;;
8952;SDS011;4511;50.890;8.054;2023-05-07T01:06:52;5.60;;;2.50;;
8952;SDS011;4511;50.890;8.054;2023-05-07T01:09:20;3.13;;;2.50;;
8952;SDS011;4511;50.890;8.054;2023-05-07T01:11:49;2.50;;;2.20;;
8952;SDS011;4511;50.890;8.054;2023-05-07T01:14:17;3.57;;;2.00;;
8952;SDS011;4511;50.890;8.054;2023-05-07T01:16:45;2.57;;;2.37;;
8952;SDS011;4511;50.890;8.054;2023-05-07T01:19:12;2.40;;;2.20;;
8952;SDS011;4511;50.890;8.054;2023-05-07T01:21:43;2.73;;;2.53;;
8952;SDS011;4511;50.890;8.054;2023-05-07T01:24:14;2.67;;;2.47;;
8952;SDS011;4511;50.890;8.054;2023-05-07T01:26:41;2.73;;;2.53;;
8952;SDS011;4511;50.890;8.054;2023-05-07T01:29:08;2.60;;;2.30;;
8952;SDS011;4511;50.890;8.054;2023-05-07T01:31:35;2.37;;;2.27;;
8952;SDS011;4511;50.890;8.054;2023-05-07T01:34:03;3.83;;;2.30;;
8952;SDS011;4511;50.890;8.054;2023-05-07T01:36:31;2.40;;;2.20;;
8952;SDS011;4511;50.890;8.054;2023-05-07T01:38:58;2.50;;;2.30;;
8952;SDS011;4511;50.890;8.054;2023-05-07T01:41:27;2.50;;;2.30;;
8952;SDS011;4511;50.890;8.054;2023-05-07T01:43:54;2.90;;;2.70;;
8952;SDS011;4511;50.890;8.054;2023-05-07T01:46:21;2.50;;;2.30;;
8952;SDS011;4511;50.890;8.054;2023-05-07T01:48:48;3.50;;;2.73;;
8952;SDS011;4511;50.890;8.054;2023-05-07T01:51:16;2.70;;;2.50;;
8952;SDS011;4511;50.890;8.054;2023-05-07T01:53:44;3.10;;;2.80;;
8952;SDS011;4511;50.890;8.054;2023-05-07T01:56:15;3.37;;;3.07;;
8952;SDS011;4511;50.890;8.054;2023-05-07T01:58:44;3.27;;;2.67;;
8952;SDS011;4511;50.890;8.054;2023-05-07T02:01:10;3.33;;;2.70;;
8952;SDS011;4511;50.890;8.054;2023-05-07T02:03:38;3.00;;;2.80;;
8952;SDS011;4511;50.890;8.054;2023-05-07T02:06:05;3.30;;;3.10;;
8952;SDS011;4511;50.890;8.054;2023-05-07T02:08:32;6.30;;;3.30;;
8952;SDS011;4511;50.890;8.054;2023-05-07T02:10:59;3.13;;;2.80;;
8952;SDS011;4511;50.890;8.054;2023-05-07T02:13:26;3.43;;;2.90;;
8952;SDS011;4511;50.890;8.054;2023-05-07T02:15:56;3.80;;;2.80;;
8952;SDS011;4511;50.890;8.054;2023-05-07T02:18:23;3.57;;;3.27;;
8952;SDS011;4511;50.890;8.054;2023-05-07T02:20:50;3.20;;;2.80;;
8952;SDS011;4511;50.890;8.054;2023-05-07T02:23:16;3.07;;;2.77;;
8952;SDS011;4511;50.890;8.054;2023-05-07T02:25:43;3.00;;;2.80;;
8952;SDS011;4511;50.890;8.054;2023-05-07T02:28:11;2.67;;;2.40;;
8952;SDS011;4511;50.890;8.054;2023-05-07T02:30:38;4.07;;;3.03;;
8952;SDS011;4511;50.890;8.054;2023-05-07T02:33:06;3.30;;;3.00;;
8952;SDS011;4511;50.890;8.054;2023-05-07T02:35:33;3.40;;;3.10;;
8952;SDS011;4511;50.890;8.054;2023-05-07T02:38:00;3.20;;;2.90;;
8952;SDS011;4511;50.890;8.054;2023-05-07T02:40:27;3.10;;;2.90;;
8952;SDS011;4511;50.890;8.054;2023-05-07T02:42:53;3.10;;;2.80;;
8952;SDS011;4511;50.890;8.054;2023-05-07T02:45:20;3.00;;;2.80;;
8952;SDS011;4511;50.890;8.054;2023-05-07T02:47:47;4.03;;;2.80;;
8952;SDS011;4511;50.890;8.054;2023-05-07T02:50:15;2.80;;;2.60;;
8952;SDS011;4511;50.890;8.054;2023-05-07T02:52:42;3.03;;;2.60;;
8952;SDS011;4511;50.890;8.054;2023-05-07T02:55:09;4.70;;;2.80;;
8952;SDS011;4511;50.890;8.054;2023-05-07T02:57:35;2.90;;;2.70;;
8952;SDS011;4511;50.890;8.054;2023-05-07T03:00:10;2.97;;;2.50;;
8952;SDS011;4511;50.890;8.054;2023-05-07T03:02:37;2.83;;;2.63;;
8952;SDS011;4511;50.890;8.054;2023-05-07T03:05:05;3.77;;;2.50;;
8952;SDS011;4511;50.890;8.054;2023-05-07T03:07:34;4.67;;;2.50;;
8952;SDS011;4511;50.890;8.054;2023-05-07T03:10:01;2.80;;;2.60;;
8952;SDS011;4511;50.890;8.054;2023-05-07T03:12:27;2.80;;;2.60;;
8952;SDS011;4511;50.890;8.054;2023-05-07T03:14:54;2.93;;;2.70;;
8952;SDS011;4511;50.890;8.054;2023-05-07T03:17:21;2.80;;;2.60;;
8952;SDS011;4511;50.890;8.054;2023-05-07T03:19:48;3.27;;;3.07;;
8952;SDS011;4511;50.890;8.054;2023-05-07T03:22:15;3.30;;;3.00;;
8952;SDS011;4511;50.890;8.054;2023-05-07T03:24:43;3.87;;;3.30;;
8952;SDS011;4511;50.890;8.054;2023-05-07T03:27:09;3.00;;;2.80;;
8952;SDS011;4511;50.890;8.054;2023-05-07T03:29:36;3.03;;;2.73;;
8952;SDS011;4511;50.890;8.054;2023-05-07T03:32:03;3.53;;;2.97;;
8952;SDS011;4511;50.890;8.054;2023-05-07T03:34:30;3.20;;;2.93;;
8952;SDS011;4511;50.890;8.054;2023-05-07T03:36:57;3.10;;;2.90;;
8952;SDS011;4511;50.890;8.054;2023-05-07T03:39:24;3.37;;;3.10;;
8952;SDS011;4511;50.890;8.054;2023-05-07T03:41:52;4.53;;;3.33;;
8952;SDS011;4511;50.890;8.054;2023-05-07T03:44:19;3.53;;;2.90;;
8952;SDS011;4511;50.890;8.054;2023-05-07T03:46:45;3.43;;;3.20;;
8952;SDS011;4511;50.890;8.054;2023-05-07T03:49:12;4.63;;;2.90;;
8952;SDS011;4511;50.890;8.054;2023-05-07T03:51:39;3.20;;;3.00;;
8952;SDS011;4511;50.890;8.054;2023-05-07T03:54:06;3.47;;;3.27;;
8952;SDS011;4511;50.890;8.054;2023-05-07T03:56:33;5.10;;;3.13;;
8952;SDS011;4511;50.890;8.054;2023-05-07T03:59:01;3.30;;;3.00;;
8952;SDS011;4511;50.890;8.054;2023-05-07T04:01:28;3.40;;;3.10;;
8952;SDS011;4511;50.890;8.054;2023-05-07T04:03:55;3.70;;;3.00;;
8952;SDS011;4511;50.890;8.054;2023-05-07T04:06:22;3.33;;;2.90;;
8952;SDS011;4511;50.890;8.054;2023-05-07T04:08:49;3.10;;;2.90;;
8952;SDS011;4511;50.890;8.054;2023-05-07T04:11:16;3.57;;;3.20;;
8952;SDS011;4511;50.890;8.054;2023-05-07T04:13:49;3.17;;;2.97;;
8952;SDS011;4511;50.890;8.054;2023-05-07T04:16:17;3.00;;;2.80;;
8952;SDS011;4511;50.890;8.054;2023-05-07T04:18:43;6.93;;;3.27;;
8952;SDS011;4511;50.890;8.054;2023-05-07T04:21:14;3.10;;;2.90;;
8952;SDS011;4511;50.890;8.054;2023-05-07T04:23:41;3.10;;;2.90;;
8952;SDS011;4511;50.890;8.054;2023-05-07T04:26:07;5.80;;;3.33;;
8952;SDS011;4511;50.890;8.054;2023-05-07T04:28:34;3.20;;;2.90;;
8952;SDS011;4511;50.890;8.054;2023-05-07T04:31:01;3.87;;;3.00;;
8952;SDS011;4511;50.890;8.054;2023-05-07T04:33:29;3.33;;;2.90;;
8952;SDS011;4511;50.890;8.054;2023-05-07T04:35:56;3.90;;;3.60;;
8952;SDS011;4511;50.890;8.054;2023-05-07T04:38:31;3.77;;;3.40;;
8952;SDS011;4511;50.890;8.054;2023-05-07T04:40:58;3.40;;;3.10;;
8952;SDS011;4511;50.890;8.054;2023-05-07T04:43:30;3.53;;;3.17;;
8952;SDS011;4511;50.890;8.054;2023-05-07T04:45:57;4.27;;;3.20;;
8952;SDS011;4511;50.890;8.054;2023-05-07T04:48:23;3.17;;;2.90;;
8952;SDS011;4511;50.890;8.054;2023-05-07T04:50:52;3.40;;;3.20;;
8952;SDS011;4511;50.890;8.054;2023-05-07T04:53:19;3.77;;;3.17;;
8952;SDS011;4511;50.890;8.054;2023-05-07T04:55:46;3.87;;;3.50;;
8952;SDS011;4511;50.890;8.054;2023-05-07T04:58:13;4.50;;;3.00;;
8952;SDS011;4511;50.890;8.054;2023-05-07T05:00:39;5.93;;;3.50;;
8952;SDS011;4511;50.890;8.054;2023-05-07T05:03:07;3.63;;;3.20;;
8952;SDS011;4511;50.890;8.054;2023-05-07T05:05:34;3.40;;;3.20;;
8952;SDS011;4511;50.890;8.054;2023-05-07T05:08:02;3.30;;;3.10;;
8952;SDS011;4511;50.890;8.054;2023-05-07T05:10:29;3.90;;;3.07;;
8952;SDS011;4511;50.890;8.054;2023-05-07T05:12:56;3.83;;;3.40;;
8952;SDS011;4511;50.890;8.054;2023-05-07T05:15:23;4.23;;;3.60;;
8952;SDS011;4511;50.890;8.054;2023-05-07T05:17:49;4.03;;;3.60;;
8952;SDS011;4511;50.890;8.054;2023-05-07T05:20:16;3.80;;;3.50;;
8952;SDS011;4511;50.890;8.054;2023-05-07T05:22:43;4.03;;;3.40;;
8952;SDS011;4511;50.890;8.054;2023-05-07T05:25:11;5.50;;;3.70;;
8952;SDS011;4511;50.890;8.054;2023-05-07T05:27:38;5.03;;;3.60;;
8952;SDS011;4511;50.890;8.054;2023-05-07T05:30:05;4.43;;;4.03;;
8952;SDS011;4511;50.890;8.054;2023-05-07T05:32:33;4.03;;;3.70;;
8952;SDS011;4511;50.890;8.054;2023-05-07T05:34:59;4.50;;;4.20;;
8952;SDS011;4511;50.890;8.054;2023-05-07T05:37:26;4.80;;;4.40;;
8952;SDS011;4511;50.890;8.054;2023-05-07T05:39:55;4.23;;;3.93;;
8952;SDS011;4511;50.890;8.054;2023-05-07T05:42:23;4.60;;;4.20;;
8952;SDS011;4511;50.890;8.054;2023-05-07T05:44:50;4.40;;;4.00;;
8952;SDS011;4511;50.890;8.054;2023-05-07T05:47:16;4.60;;;4.27;;
8952;SDS011;4511;50.890;8.054;2023-05-07T05:49:43;4.80;;;4.40;;
8952;SDS011;4511;50.890;8.054;2023-05-07T05:52:11;4.87;;;4.47;;
8952;SDS011;4511;50.890;8.054;2023-05-07T05:54:38;4.77;;;4.37;;
8952;SDS011;4511;50.890;8.054;2023-05-07T05:57:05;5.27;;;4.77;;
8952;SDS011;4511;50.890;8.054;2023-05-07T05:59:33;5.20;;;4.80;;
8952;SDS011;4511;50.890;8.054;2023-05-07T06:02:00;5.00;;;4.50;;
8952;SDS011;4511;50.890;8.054;2023-05-07T06:04:27;5.60;;;5.00;;
8952;SDS011;4511;50.890;8.054;2023-05-07T06:06:54;5.43;;;5.03;;
8952;SDS011;4511;50.890;8.054;2023-05-07T06:09:21;5.53;;;4.97;;
8952;SDS011;4511;50.890;8.054;2023-05-07T06:11:48;5.60;;;5.10;;
8952;SDS011;4511;50.890;8.054;2023-05-07T06:14:15;6.20;;;5.67;;
8952;SDS011;4511;50.890;8.054;2023-05-07T06:16:43;6.97;;;5.47;;
8952;SDS011;4511;50.890;8.054;2023-05-07T06:19:10;6.20;;;5.70;;
8952;SDS011;4511;50.890;8.054;2023-05-07T06:21:37;6.60;;;6.00;;
8952;SDS011;4511;50.890;8.054;2023-05-07T06:24:04;6.10;;;5.50;;
8952;SDS011;4511;50.890;8.054;2023-05-07T06:26:33;6.17;;;5.57;;
8952;SDS011;4511;50.890;8.054;2023-05-07T06:29:00;6.37;;;5.87;;
8952;SDS011;4511;50.890;8.054;2023-05-07T06:31:29;6.73;;;6.00;;
8952;SDS011;4511;50.890;8.054;2023-05-07T06:33:59;6.67;;;6.07;;
8952;SDS011;4511;50.890;8.054;2023-05-07T06:36:27;6.03;;;5.53;;
8952;SDS011;4511;50.890;8.054;2023-05-07T06:38:54;6.17;;;5.67;;
8952;SDS011;4511;50.890;8.054;2023-05-07T06:41:21;5.57;;;5.07;;
8952;SDS011;4511;50.890;8.054;2023-05-07T06:43:47;6.43;;;5.70;;
8952;SDS011;4511;50.890;8.054;2023-05-07T06:46:15;6.63;;;5.70;;
8952;SDS011;4511;50.890;8.054;2023-05-07T06:48:42;6.90;;;6.20;;
8952;SDS011;4511;50.890;8.054;2023-05-07T06:51:10;6.30;;;5.80;;
8952;SDS011;4511;50.890;8.054;2023-05-07T06:53:37;6.20;;;5.60;;
8952;SDS011;4511;50.890;8.054;2023-05-07T06:56:04;7.40;;;5.80;;
8952;SDS011;4511;50.890;8.054;2023-05-07T06:58:31;6.33;;;5.73;;
8952;SDS011;4511;50.890;8.054;2023-05-07T07:00:58;6.80;;;5.50;;
8952;SDS011;4511;50.890;8.054;2023-05-07T07:03:24;6.10;;;5.50;;
8952;SDS011;4511;50.890;8.054;2023-05-07T07:05:51;6.00;;;5.50;;
8952;SDS011;4511;50.890;8.054;2023-05-07T07:08:20;5.77;;;5.33;;
8952;SDS011;4511;50.890;8.054;2023-05-07T07:10:47;6.00;;;5.40;;
8952;SDS011;4511;50.890;8.054;2023-05-07T07:13:14;6.23;;;5.63;;
8952;SDS011;4511;50.890;8.054;2023-05-07T07:15:56;5.90;;;5.30;;
8952;SDS011;4511;50.890;8.054;2023-05-07T07:18:29;6.43;;;5.83;;
8952;SDS011;4511;50.890;8.054;2023-05-07T07:20:55;5.70;;;5.23;;
8952;SDS011;4511;50.890;8.054;2023-05-07T07:23:23;5.70;;;5.20;;
8952;SDS011;4511;50.890;8.054;2023-05-07T07:25:50;5.90;;;5.40;;
8952;SDS011;4511;50.890;8.054;2023-05-07T07:28:17;5.47;;;5.00;;
8952;SDS011;4511;50.890;8.054;2023-05-07T07:30:46;5.27;;;4.87;;
8952;SDS011;4511;50.890;8.054;2023-05-07T07:33:13;5.40;;;4.90;;
8952;SDS011;4511;50.890;8.054;2023-05-07T07:35:40;5.30;;;4.80;;
8952;SDS011;4511;50.890;8.054;2023-05-07T07:38:06;5.20;;;4.60;;
8952;SDS011;4511;50.890;8.054;2023-05-07T07:40:35;4.93;;;4.50;;
8952;SDS011;4511;50.890;8.054;2023-05-07T07:43:02;5.80;;;4.93;;
8952;SDS011;4511;50.890;8.054;2023-05-07T07:45:29;5.33;;;4.70;;
8952;SDS011;4511;50.890;8.054;2023-05-07T07:47:57;4.60;;;4.23;;
8952;SDS011;4511;50.890;8.054;2023-05-07T07:50:23;4.43;;;4.03;;
8952;SDS011;4511;50.890;8.054;2023-05-07T07:52:50;4.70;;;4.30;;
8952;SDS011;4511;50.890;8.054;2023-05-07T07:55:19;4.70;;;4.30;;
8952;SDS011;4511;50.890;8.054;2023-05-07T07:57:49;5.03;;;4.63;;
8952;SDS011;4511;50.890;8.054;2023-05-07T08:00:16;5.33;;;4.90;;
8952;SDS011;4511;50.890;8.054;2023-05-07T08:02:43;5.27;;;4.77;;
8952;SDS011;4511;50.890;8.054;2023-05-07T08:05:09;4.90;;;4.47;;
8952;SDS011;4511;50.890;8.054;2023-05-07T08:07:36;7.60;;;4.93;;
8952;SDS011;4511;50.890;8.054;2023-05-07T08:10:03;5.97;;;4.73;;
8952;SDS011;4511;50.890;8.054;2023-05-07T08:12:30;5.00;;;4.60;;
8952;SDS011;4511;50.890;8.054;2023-05-07T08:14:58;5.80;;;5.30;;
8952;SDS011;4511;50.890;8.054;2023-05-07T08:17:25;5.23;;;4.80;;
8952;SDS011;4511;50.890;8.054;2023-05-07T08:19:52;5.23;;;4.73;;
8952;SDS011;4511;50.890;8.054;2023-05-07T08:22:18;5.23;;;4.83;;
8952;SDS011;4511;50.890;8.054;2023-05-07T08:24:45;5.30;;;4.80;;
8952;SDS011;4511;50.890;8.054;2023-05-07T08:27:12;5.27;;;4.87;;
8952;SDS011;4511;50.890;8.054;2023-05-07T08:29:39;5.00;;;4.50;;
8952;SDS011;4511;50.890;8.054;2023-05-07T08:32:07;5.93;;;4.77;;
8952;SDS011;4511;50.890;8.054;2023-05-07T08:34:34;5.30;;;4.90;;
8952;SDS011;4511;50.890;8.054;2023-05-07T08:37:00;6.27;;;5.07;;
8952;SDS011;4511;50.890;8.054;2023-05-07T08:39:27;5.33;;;4.60;;
8952;SDS011;4511;50.890;8.054;2023-05-07T08:41:55;5.43;;;4.90;;
8952;SDS011;4511;50.890;8.054;2023-05-07T08:44:22;5.20;;;4.70;;
8952;SDS011;4511;50.890;8.054;2023-05-07T08:46:52;5.60;;;5.00;;
8952;SDS011;4511;50.890;8.054;2023-05-07T08:49:23;6.10;;;5.53;;
8952;SDS011;4511;50.890;8.054;2023-05-07T08:51:49;5.70;;;5.17;;
8952;SDS011;4511;50.890;8.054;2023-05-07T08:54:16;7.93;;;5.07;;
8952;SDS011;4511;50.890;8.054;2023-05-07T08:56:44;8.43;;;5.20;;
8952;SDS011;4511;50.890;8.054;2023-05-07T08:59:11;5.33;;;4.83;;
8952;SDS011;4511;50.890;8.054;2023-05-07T09:01:38;5.70;;;5.20;;
8952;SDS011;4511;50.890;8.054;2023-05-07T09:04:05;5.57;;;5.03;;
8952;SDS011;4511;50.890;8.054;2023-05-07T09:06:34;5.67;;;5.27;;
8952;SDS011;4511;50.890;8.054;2023-05-07T09:09:02;6.17;;;5.30;;
8952;SDS011;4511;50.890;8.054;2023-05-07T09:11:30;4.83;;;4.47;;
8952;SDS011;4511;50.890;8.054;2023-05-07T09:13:57;5.27;;;4.70;;
8952;SDS011;4511;50.890;8.054;2023-05-07T09:16:26;7.27;;;5.07;;
8952;SDS011;4511;50.890;8.054;2023-05-07T09:18:54;5.33;;;4.83;;
8952;SDS011;4511;50.890;8.054;2023-05-07T09:21:23;7.30;;;4.90;;
8952;SDS011;4511;50.890;8.054;2023-05-07T09:23:52;5.70;;;5.00;;
8952;SDS011;4511;50.890;8.054;2023-05-07T09:26:20;6.00;;;5.50;;
8952;SDS011;4511;50.890;8.054;2023-05-07T09:28:47;5.40;;;4.90;;
8952;SDS011;4511;50.890;8.054;2023-05-07T09:31:14;6.43;;;4.90;;
8952;SDS011;4511;50.890;8.054;2023-05-07T09:33:41;5.17;;;4.67;;
8952;SDS011;4511;50.890;8.054;2023-05-07T09:36:08;5.03;;;4.63;;
8952;SDS011;4511;50.890;8.054;2023-05-07T09:38:36;5.17;;;4.67;;
8952;SDS011;4511;50.890;8.054;2023-05-07T09:41:05;4.90;;;4.40;;
8952;SDS011;4511;50.890;8.054;2023-05-07T09:43:33;5.53;;;4.90;;
8952;SDS011;4511;50.890;8.054;2023-05-07T09:46:02;5.33;;;4.83;;
8952;SDS011;4511;50.890;8.054;2023-05-07T09:48:31;4.80;;;4.40;;
8952;SDS011;4511;50.890;8.054;2023-05-07T09:51:01;4.93;;;4.33;;
8952;SDS011;4511;50.890;8.054;2023-05-07T09:53:29;4.47;;;4.10;;
8952;SDS011;4511;50.890;8.054;2023-05-07T09:55:57;4.80;;;4.23;;
8952;SDS011;4511;50.890;8.054;2023-05-07T09:58:26;5.30;;;3.97;;
8952;SDS011;4511;50.890;8.054;2023-05-07T10:00:54;6.77;;;3.80;;
8952;SDS011;4511;50.890;8.054;2023-05-07T10:03:21;4.33;;;3.93;;
8952;SDS011;4511;50.890;8.054;2023-05-07T10:05:50;5.20;;;4.23;;
8952;SDS011;4511;50.890;8.054;2023-05-07T10:08:17;5.87;;;4.20;;
8952;SDS011;4511;50.890;8.054;2023-05-07T10:10:45;5.00;;;4.23;;
8952;SDS011;4511;50.890;8.054;2023-05-07T10:13:12;4.57;;;3.50;;
8952;SDS011;4511;50.890;8.054;2023-05-07T10:15:40;3.70;;;3.40;;
8952;SDS011;4511;50.890;8.054;2023-05-07T10:18:07;3.10;;;2.90;;
8952;SDS011;4511;50.890;8.054;2023-05-07T10:20:34;4.47;;;4.07;;
8952;SDS011;4511;50.890;8.054;2023-05-07T10:23:03;4.53;;;3.80;;
8952;SDS011;4511;50.890;8.054;2023-05-07T10:25:31;3.70;;;3.20;;
8952;SDS011;4511;50.890;8.054;2023-05-07T10:27:59;3.73;;;3.47;;
8952;SDS011;4511;50.890;8.054;2023-05-07T10:30:34;6.33;;;3.70;;
8952;SDS011;4511;50.890;8.054;2023-05-07T10:33:22;3.60;;;3.30;;
8952;SDS011;4511;50.890;8.054;2023-05-07T10:35:55;3.73;;;3.43;;
8952;SDS011;4511;50.890;8.054;2023-05-07T10:38:24;3.93;;;3.53;;
8952;SDS011;4511;50.890;8.054;2023-05-07T10:40:51;4.43;;;4.13;;
8952;SDS011;4511;50.890;8.054;2023-05-07T10:43:18;5.47;;;4.47;;
8952;SDS011;4511;50.890;8.054;2023-05-07T10:45:50;4.00;;;3.63;;
8952;SDS011;4511;50.890;8.054;2023-05-07T10:48:40;3.73;;;3.43;;
8952;SDS011;4511;50.890;8.054;2023-05-07T10:51:32;4.57;;;4.07;;
8952;SDS011;4511;50.890;8.054;2023-05-07T10:54:19;5.20;;;4.00;;
8952;SDS011;4511;50.890;8.054;2023-05-07T10:56:47;5.20;;;4.10;;
8952;SDS011;4511;50.890;8.054;2023-05-07T10:59:31;5.40;;;4.23;;
8952;SDS011;4511;50.890;8.054;2023-05-07T11:02:01;4.73;;;3.90;;
8952;SDS011;4511;50.890;8.054;2023-05-07T11:04:31;4.20;;;3.80;;
8952;SDS011;4511;50.890;8.054;2023-05-07T11:09:55;5.07;;;4.53;;
8952;SDS011;4511;50.890;8.054;2023-05-07T11:18:16;4.50;;;4.10;;
8952;SDS011;4511;50.890;8.054;2023-05-07T11:20:47;3.90;;;3.57;;
8952;SDS011;4511;50.890;8.054;2023-05-07T11:26:27;5.13;;;4.10;;
8952;SDS011;4511;50.890;8.054;2023-05-07T11:28:55;7.00;;;6.40;;
8952;SDS011;4511;50.890;8.054;2023-05-07T11:31:23;4.97;;;4.57;;
8952;SDS011;4511;50.890;8.054;2023-05-07T11:33:54;4.60;;;4.23;;
8952;SDS011;4511;50.890;8.054;2023-05-07T11:36:22;4.83;;;4.50;;
8952;SDS011;4511;50.890;8.054;2023-05-07T11:38:50;6.87;;;4.60;;
8952;SDS011;4511;50.890;8.054;2023-05-07T11:41:16;5.40;;;4.90;;
8952;SDS011;4511;50.890;8.054;2023-05-07T11:43:55;5.00;;;4.60;;
8952;SDS011;4511;50.890;8.054;2023-05-07T11:46:23;5.53;;;5.03;;
8952;SDS011;4511;50.890;8.054;2023-05-07T11:48:50;4.70;;;4.30;;
8952;SDS011;4511;50.890;8.054;2023-05-07T11:51:22;4.67;;;4.20;;
8952;SDS011;4511;50.890;8.054;2023-05-07T11:53:51;5.50;;;5.00;;
8952;SDS011;4511;50.890;8.054;2023-05-07T11:56:18;6.17;;;5.50;;
8952;SDS011;4511;50.890;8.054;2023-05-07T11:58:45;6.40;;;5.80;;
8952;SDS011;4511;50.890;8.054;2023-05-07T12:01:13;5.77;;;5.23;;
8952;SDS011;4511;50.890;8.054;2023-05-07T12:03:41;6.00;;;4.57;;
8952;SDS011;4511;50.890;8.054;2023-05-07T12:06:10;5.17;;;4.70;;
8952;SDS011;4511;50.890;8.054;2023-05-07T12:08:40;5.33;;;4.83;;
8952;SDS011;4511;50.890;8.054;2023-05-07T12:11:08;4.90;;;4.50;;
8952;SDS011;4511;50.890;8.054;2023-05-07T12:13:36;4.77;;;4.30;;
8952;SDS011;4511;50.890;8.054;2023-05-07T12:16:04;5.03;;;4.33;;
8952;SDS011;4511;50.890;8.054;2023-05-07T12:18:32;5.80;;;5.30;;
8952;SDS011;4511;50.890;8.054;2023-05-07T12:21:03;233.33;;;20.03;;
8952;SDS011;4511;50.890;8.054;2023-05-07T12:23:31;5.00;;;4.60;;
8952;SDS011;4511;50.890;8.054;2023-05-07T12:25:59;5.10;;;4.60;;
8952;SDS011;4511;50.890;8.054;2023-05-07T12:28:27;4.87;;;4.47;;
8952;SDS011;4511;50.890;8.054;2023-05-07T12:30:53;5.10;;;4.60;;
8952;SDS011;4511;50.890;8.054;2023-05-07T12:33:24;4.80;;;4.40;;
8952;SDS011;4511;50.890;8.054;2023-05-07T12:35:53;5.37;;;4.57;;
8952;SDS011;4511;50.890;8.054;2023-05-07T12:38:21;4.97;;;4.57;;
8952;SDS011;4511;50.890;8.054;2023-05-07T12:40:48;5.00;;;4.50;;
8952;SDS011;4511;50.890;8.054;2023-05-07T12:43:18;5.03;;;4.63;;
8952;SDS011;4511;50.890;8.054;2023-05-07T12:45:46;5.17;;;4.67;;
8952;SDS011;4511;50.890;8.054;2023-05-07T12:48:15;5.63;;;5.13;;
8952;SDS011;4511;50.890;8.054;2023-05-07T12:50:42;5.13;;;4.67;;
8952;SDS011;4511;50.890;8.054;2023-05-07T12:53:09;6.30;;;5.20;;
8952;SDS011;4511;50.890;8.054;2023-05-07T12:55:40;5.57;;;4.97;;
8952;SDS011;4511;50.890;8.054;2023-05-07T12:58:08;6.17;;;5.17;;
8952;SDS011;4511;50.890;8.054;2023-05-07T13:00:43;7.07;;;5.60;;
8952;SDS011;4511;50.890;8.054;2023-05-07T13:03:10;5.13;;;4.67;;
8952;SDS011;4511;50.890;8.054;2023-05-07T13:05:37;7.00;;;5.30;;
8952;SDS011;4511;50.890;8.054;2023-05-07T13:08:04;5.40;;;5.00;;
8952;SDS011;4511;50.890;8.054;2023-05-07T13:10:34;5.37;;;4.97;;
8952;SDS011;4511;50.890;8.054;2023-05-07T13:13:01;8.97;;;5.53;;
8952;SDS011;4511;50.890;8.054;2023-05-07T13:15:28;5.47;;;4.90;;
8952;SDS011;4511;50.890;8.054;2023-05-07T13:17:56;5.40;;;5.00;;
8952;SDS011;4511;50.890;8.054;2023-05-07T13:20:23;6.80;;;4.80;;
8952;SDS011;4511;50.890;8.054;2023-05-07T13:22:50;5.33;;;4.90;;
8952;SDS011;4511;50.890;8.054;2023-05-07T13:25:17;5.10;;;4.70;;
8952;SDS011;4511;50.890;8.054;2023-05-07T13:27:44;5.00;;;4.57;;
8952;SDS011;4511;50.890;8.054;2023-05-07T13:30:10;5.00;;;4.60;;
8952;SDS011;4511;50.890;8.054;2023-05-07T13:32:37;4.93;;;4.47;;
8952;SDS011;4511;50.890;8.054;2023-05-07T13:35:06;4.60;;;4.20;;
8952;SDS011;4511;50.890;8.054;2023-05-07T13:37:33;4.50;;;4.10;;
8952;SDS011;4511;50.890;8.054;2023-05-07T13:40:00;4.57;;;4.13;;
8952;SDS011;4511;50.890;8.054;2023-05-07T13:42:27;4.20;;;3.90;;
8952;SDS011;4511;50.890;8.054;2023-05-07T13:44:54;4.10;;;3.80;;
8952;SDS011;4511;50.890;8.054;2023-05-07T13:47:21;4.50;;;4.07;;
8952;SDS011;4511;50.890;8.054;2023-05-07T13:49:48;4.53;;;3.90;;
8952;SDS011;4511;50.890;8.054;2023-05-07T13:52:17;5.93;;;4.30;;
8952;SDS011;4511;50.890;8.054;2023-05-07T13:54:44;4.30;;;4.00;;
8952;SDS011;4511;50.890;8.054;2023-05-07T13:57:10;5.83;;;4.37;;
8952;SDS011;4511;50.890;8.054;2023-05-07T13:59:37;4.50;;;4.10;;
8952;SDS011;4511;50.890;8.054;2023-05-07T14:02:04;4.40;;;4.00;;
8952;SDS011;4511;50.890;8.054;2023-05-07T14:04:30;5.77;;;3.90;;
8952;SDS011;4511;50.890;8.054;2023-05-07T14:06:57;4.40;;;4.00;;
8952;SDS011;4511;50.890;8.054;2023-05-07T14:09:25;6.40;;;3.67;;
8952;SDS011;4511;50.890;8.054;2023-05-07T14:11:52;4.23;;;3.83;;
8952;SDS011;4511;50.890;8.054;2023-05-07T14:14:18;3.90;;;3.60;;
8952;SDS011;4511;50.890;8.054;2023-05-07T14:16:45;5.17;;;3.80;;
8952;SDS011;4511;50.890;8.054;2023-05-07T14:19:12;4.70;;;4.10;;
8952;SDS011;4511;50.890;8.054;2023-05-07T14:21:39;4.10;;;3.70;;
8952;SDS011;4511;50.890;8.054;2023-05-07T14:24:07;5.47;;;3.80;;
8952;SDS011;4511;50.890;8.054;2023-05-07T14:26:36;4.20;;;3.90;;
8952;SDS011;4511;50.890;8.054;2023-05-07T14:29:02;4.40;;;4.00;;
8952;SDS011;4511;50.890;8.054;2023-05-07T14:31:29;4.70;;;4.30;;
8952;SDS011;4511;50.890;8.054;2023-05-07T14:33:56;5.33;;;4.83;;
8952;SDS011;4511;50.890;8.054;2023-05-07T14:36:23;5.40;;;4.90;;
8952;SDS011;4511;50.890;8.054;2023-05-07T14:38:51;5.50;;;5.00;;
8952;SDS011;4511;50.890;8.054;2023-05-07T14:41:18;5.60;;;4.97;;
8952;SDS011;4511;50.890;8.054;2023-05-07T14:43:47;5.50;;;5.00;;
8952;SDS011;4511;50.890;8.054;2023-05-07T14:46:15;5.60;;;5.10;;
8952;SDS011;4511;50.890;8.054;2023-05-07T14:48:43;7.20;;;5.00;;
8952;SDS011;4511;50.890;8.054;2023-05-07T14:51:10;5.27;;;4.77;;
8952;SDS011;4511;50.890;8.054;2023-05-07T14:53:37;5.90;;;5.00;;
8952;SDS011;4511;50.890;8.054;2023-05-07T14:56:04;5.40;;;4.90;;
8952;SDS011;4511;50.890;8.054;2023-05-07T14:58:31;6.67;;;5.47;;
8952;SDS011;4511;50.890;8.054;2023-05-07T15:00:59;6.57;;;5.70;;
8952;SDS011;4511;50.890;8.054;2023-05-07T15:03:26;5.50;;;5.00;;
8952;SDS011;4511;50.890;8.054;2023-05-07T15:05:54;7.17;;;6.10;;
8952;SDS011;4511;50.890;8.054;2023-05-07T15:08:20;6.17;;;5.67;;
8952;SDS011;4511;50.890;8.054;2023-05-07T15:10:47;6.07;;;5.33;;
8952;SDS011;4511;50.890;8.054;2023-05-07T15:13:14;5.70;;;5.23;;
8952;SDS011;4511;50.890;8.054;2023-05-07T15:15:41;5.67;;;5.20;;
8952;SDS011;4511;50.890;8.054;2023-05-07T15:18:09;5.90;;;5.40;;
8952;SDS011;4511;50.890;8.054;2023-05-07T15:20:37;7.47;;;5.33;;
8952;SDS011;4511;50.890;8.054;2023-05-07T15:23:04;10.00;;;6.10;;
8952;SDS011;4511;50.890;8.054;2023-05-07T15:25:34;6.73;;;5.63;;
8952;SDS011;4511;50.890;8.054;2023-05-07T15:28:01;6.33;;;5.73;;
8952;SDS011;4511;50.890;8.054;2023-05-07T15:30:28;6.17;;;5.60;;